Time;durP1;ratioP1;P1;durP2;ratioP2;P2;SDS_P1;SDS_P2;PMS_P1;PMS_P2;Temp;Humidity;BMP_temperature;BMP_pressure;BME280_temperature;BME280_humidity;BME280_pressure;Samples;Min_cycle;Max_cycle;Signal;HPM_P1;HPM_P2
2022/01/22 00:09:14;;;;;;;12.6;16.7;;;;;;;-1.3;79.2;98760;;;;
2022/01/22 00:20:14;;;;;;;12.6;16.7;;;;;;;-1.2;79.5;98750;;;;
2022/01/22 00:31:14;;;;;;;14.2;20.1;;;;;;;-1.1;79.6;98770;;;;
2022/01/22 00:42:15;;;;;;;14.2;20.1;;;;;;;-1.6;79.8;98770;;;;
2022/01/22 00:52:14;;;;;;;14.2;20.1;;;;;;;-2;79.8;98770;;;;
2022/01/22 01:02:14;;;;;;;8.8;12.2;;;;;;;-2;80;98770;;;;
2022/01/22 01:12:14;;;;;;;8.8;12.2;;;;;;;-2.1;79.6;98770;;;;
2022/01/22 01:33:18;;;;;;;4.8;8;;;;;;;-2.2;77.2;98740;;;;
2022/01/22 01:44:14;;;;;;;4.8;8;;;;;;;-2.2;77;98740;;;;
2022/01/22 01:54:28;;;;;;;3;6.4;;;;;;;-2.4;77.5;98740;;;;
2022/01/22 02:05:14;;;;;;;3;6.4;;;;;;;-2.3;77.7;98720;;;;
2022/01/22 02:26:14;;;;;;;3.6;7;;;;;;;-2.5;77.9;98710;;;;
2022/01/22 02:37:17;;;;;;;3.6;7;;;;;;;-2.6;78;98710;;;;
2022/01/22 02:47:15;;;;;;;3.6;7;;;;;;;-2.8;78.2;98730;;;;
2022/01/22 02:57:14;;;;;;;4.4;7.7;;;;;;;-2.7;78.9;98720;;;;
2022/01/22 03:08:15;;;;;;;4.4;7.7;;;;;;;-3;79.3;98720;;;;
2022/01/22 03:18:18;;;;;;;4.4;7.7;;;;;;;-3.1;79.5;98710;;;;
2022/01/22 03:29:18;;;;;;;5.8;9.3;;;;;;;-3;80;98730;;;;
2022/01/22 03:39:14;;;;;;;5.8;9.3;;;;;;;-2.9;80.5;98730;;;;
2022/01/22 03:50:14;;;;;;;5.8;9.3;;;;;;;-2.7;79.8;98730;;;;
2022/01/22 04:00:14;;;;;;;9.8;12.6;;;;;;;-2.7;80.1;98730;;;;
2022/01/22 04:10:14;;;;;;;9.8;12.6;;;;;;;-3;79.7;98730;;;;
2022/01/22 04:32:14;;;;;;;12;14.9;;;;;;;-3.8;80;98740;;;;
2022/01/22 04:43:14;;;;;;;12;14.9;;;;;;;-4.1;80;98770;;;;
2022/01/22 04:55:18;;;;;;;13.9;16.4;;;;;;;-4.4;80.8;98780;;;;
2022/01/22 05:04:14;;;;;;;13.9;16.4;;;;;;;-4.1;82.4;98790;;;;
2022/01/22 05:15:14;;;;;;;13.9;16.4;;;;;;;-3.4;83.3;98820;;;;
2022/01/22 05:25:19;;;;;;;15.8;22.9;;;;;;;-3;82.8;98850;;;;
2022/01/22 05:37:18;;;;;;;15.8;22.9;;;;;;;-2.8;81.5;98850;;;;
2022/01/22 05:47:20;;;;;;;15.8;22.9;;;;;;;-3.1;79.9;98840;;;;
2022/01/22 06:07:14;;;;;;;13.5;19;;;;;;;-3;79.6;98880;;;;
2022/01/22 06:18:14;;;;;;;13.5;19;;;;;;;-3.2;78.6;98890;;;;
2022/01/22 06:28:14;;;;;;;13.2;17.2;;;;;;;-3.3;78.7;98910;;;;
2022/01/22 06:38:14;;;;;;;13.2;17.2;;;;;;;-3.5;79;98920;;;;
2022/01/22 06:49:14;;;;;;;13.2;17.2;;;;;;;-3.4;79.7;98920;;;;
2022/01/22 06:59:14;;;;;;;17.1;24.1;;;;;;;-3.3;79.7;98930;;;;
2022/01/22 07:10:14;;;;;;;17.1;24.1;;;;;;;-2.8;79.5;98940;;;;
2022/01/22 07:21:17;;;;;;;17.1;24.1;;;;;;;-2.6;78.7;98940;;;;
2022/01/22 07:32:25;;;;;;;11.2;15.6;;;;;;;-2.3;78.3;98950;;;;
2022/01/22 07:42:14;;;;;;;11.2;15.6;;;;;;;-2.2;77.9;98960;;;;
2022/01/22 07:53:14;;;;;;;12.6;16.4;;;;;;;-2;77.4;98980;;;;
2022/01/22 08:03:14;;;;;;;12.6;16.4;;;;;;;-2;77.2;98990;;;;
2022/01/22 08:13:14;;;;;;;12.6;16.4;;;;;;;-1.5;76.6;99020;;;;
2022/01/22 08:24:14;;;;;;;14.4;18.7;;;;;;;-1.5;76;99040;;;;
2022/01/22 08:44:14;;;;;;;14.4;18.7;;;;;;;-1.2;75.1;99060;;;;
2022/01/22 08:55:14;;;;;;;14.7;18.1;;;;;;;-1.1;74.4;99090;;;;
2022/01/22 09:05:16;;;;;;;14.7;18.1;;;;;;;-0.9;74.1;99080;;;;
2022/01/22 09:15:14;;;;;;;14.7;18.1;;;;;;;-0.9;73.5;99080;;;;
2022/01/22 09:25:15;;;;;;;15.6;21.1;;;;;;;-0.8;73.1;99070;;;;
2022/01/22 09:36:14;;;;;;;15.6;21.1;;;;;;;-0.4;72.4;99090;;;;
2022/01/22 09:46:14;;;;;;;15.6;21.1;;;;;;;-0.8;73.7;99080;;;;
2022/01/22 09:57:14;;;;;;;18.2;21.9;;;;;;;-0.4;72.4;99100;;;;
2022/01/22 10:07:14;;;;;;;18.2;21.9;;;;;;;-0.3;71.8;99120;;;;
2022/01/22 10:17:14;;;;;;;18.2;21.9;;;;;;;-0.4;72;99120;;;;
2022/01/22 10:28:18;;;;;;;17.5;20.2;;;;;;;-0.7;72.7;99130;;;;
2022/01/22 10:39:14;;;;;;;17.5;20.2;;;;;;;-0.7;73.2;99130;;;;
2022/01/22 10:49:14;;;;;;;17.5;20.2;;;;;;;-0.8;74.2;99140;;;;
2022/01/22 11:00:14;;;;;;;19.3;24.5;;;;;;;-0.6;74.4;99130;;;;
2022/01/22 11:10:14;;;;;;;19.3;24.5;;;;;;;-0.4;73.2;99150;;;;
2022/01/22 11:21:14;;;;;;;20.4;24.6;;;;;;;-0.4;72.4;99150;;;;
2022/01/22 11:32:14;;;;;;;20.4;24.6;;;;;;;-0.1;70.3;99170;;;;
2022/01/22 11:43:21;;;;;;;20.4;24.6;;;;;;;0.2;68.6;99180;;;;
2022/01/22 11:53:14;;;;;;;13.9;23.4;;;;;;;0.3;68.3;99200;;;;
2022/01/22 12:03:14;;;;;;;13.9;23.4;;;;;;;0.1;68.4;99210;;;;
2022/01/22 12:23:14;;;;;;;9.7;15.1;;;;;;;-0.4;71.8;99250;;;;
2022/01/22 12:34:14;;;;;;;9.7;15.1;;;;;;;-0.1;70.6;99250;;;;
2022/01/22 12:44:25;;;;;;;9.7;15.1;;;;;;;0;70.5;99260;;;;
2022/01/22 12:54:14;;;;;;;12.2;18.2;;;;;;;-0.2;70.7;99280;;;;
2022/01/22 13:05:14;;;;;;;12.2;18.2;;;;;;;-0.5;71;99310;;;;
2022/01/22 13:15:14;;;;;;;12.2;18.2;;;;;;;-0.7;73.3;99320;;;;
2022/01/22 13:26:14;;;;;;;11.3;19;;;;;;;-0.7;72.3;99330;;;;
2022/01/22 13:37:51;;;;;;;11.3;19;;;;;;;-0.9;72.2;99360;;;;
2022/01/22 13:47:47;;;;;;;11.3;19;;;;;;;-0.8;72.4;99370;;;;
2022/01/22 13:58:14;;;;;;;12.5;16.4;;;;;;;-0.8;72.6;99380;;;;
2022/01/22 14:09:14;;;;;;;12.5;16.4;;;;;;;-0.7;72.8;99390;;;;
2022/01/22 14:20:14;;;;;;;12.5;16.4;;;;;;;-0.9;74.4;99410;;;;
2022/01/22 14:30:14;;;;;;;14.3;23.1;;;;;;;-1.1;75.5;99430;;;;
2022/01/22 14:51:14;;;;;;;14.1;20.7;;;;;;;-1.2;76.5;99460;;;;
2022/01/22 15:02:14;;;;;;;14.1;20.7;;;;;;;-1.2;76;99470;;;;
2022/01/22 15:13:14;;;;;;;14.1;20.7;;;;;;;-1.1;75.2;99500;;;;
2022/01/22 15:23:14;;;;;;;16.9;28.1;;;;;;;-1.2;74.7;99510;;;;
2022/01/22 15:34:26;;;;;;;16.9;28.1;;;;;;;-1.3;75;99540;;;;
2022/01/22 15:44:14;;;;;;;16.9;28.1;;;;;;;-1.3;75.2;99550;;;;
2022/01/22 15:54:14;;;;;;;18.4;23.8;;;;;;;-1.4;75.9;99580;;;;
2022/01/22 16:04:15;;;;;;;18.4;23.8;;;;;;;-1.4;76.3;99590;;;;
2022/01/22 16:15:14;;;;;;;18.4;23.8;;;;;;;-1.4;76.3;99600;;;;
2022/01/22 16:26:15;;;;;;;17.2;20;;;;;;;-1.4;76;99620;;;;
2022/01/22 16:37:14;;;;;;;17.2;20;;;;;;;-1.3;75.9;99650;;;;
2022/01/22 16:58:14;;;;;;;17.2;21;;;;;;;-1.3;75.6;99660;;;;
2022/01/22 17:10:22;;;;;;;17.2;21;;;;;;;-1.3;75.6;99680;;;;
2022/01/22 17:19:14;;;;;;;17.2;21;;;;;;;-1.2;75.5;99690;;;;
2022/01/22 17:30:14;;;;;;;18.7;24.4;;;;;;;-1.2;75.4;99700;;;;
2022/01/22 17:40:14;;;;;;;18.7;24.4;;;;;;;-1.2;75.7;99710;;;;
2022/01/22 17:50:14;;;;;;;20.5;25.8;;;;;;;-1.3;75.7;99720;;;;
2022/01/22 18:00:14;;;;;;;20.5;25.8;;;;;;;-1.3;75.4;99720;;;;
2022/01/22 18:11:17;;;;;;;20.5;25.8;;;;;;;-1.3;76.3;99730;;;;
2022/01/22 18:21:14;;;;;;;20.6;25.9;;;;;;;-1.3;76.1;99730;;;;
2022/01/22 18:31:14;;;;;;;20.6;25.9;;;;;;;-1.5;76.7;99740;;;;
2022/01/22 18:41:14;;;;;;;20.6;25.9;;;;;;;-1.4;76.2;99730;;;;
2022/01/22 18:51:14;;;;;;;18.3;20.8;;;;;;;-1.5;76;99730;;;;
2022/01/22 19:02:14;;;;;;;18.3;20.8;;;;;;;-1.4;76.2;99740;;;;
2022/01/22 19:13:14;;;;;;;18.3;20.8;;;;;;;-1.4;75.9;99740;;;;
2022/01/22 19:23:23;;;;;;;34.8;44.7;;;;;;;-1.4;75.4;99730;;;;
2022/01/22 19:33:14;;;;;;;34.8;44.7;;;;;;;-1.4;75.1;99740;;;;
2022/01/22 19:44:20;;;;;;;34.8;44.7;;;;;;;-1.4;75.4;99740;;;;
2022/01/22 19:54:14;;;;;;;29.4;44.4;;;;;;;-1.4;75.3;99750;;;;
2022/01/22 20:04:14;;;;;;;29.4;44.4;;;;;;;-1.4;75.3;99750;;;;
2022/01/22 20:14:16;;;;;;;29.4;44.4;;;;;;;-1.5;74.9;99750;;;;
2022/01/22 20:25:14;;;;;;;26.1;35.5;;;;;;;-1.5;75.1;99750;;;;
2022/01/22 20:36:14;;;;;;;26.1;35.5;;;;;;;-1.5;75.1;99750;;;;
2022/01/22 20:47:15;;;;;;;26.1;35.5;;;;;;;-1.5;75.1;99750;;;;
2022/01/22 20:57:16;;;;;;;20.9;28.2;;;;;;;-1.5;74.9;99750;;;;
2022/01/22 21:07:15;;;;;;;20.9;28.2;;;;;;;-1.5;74.8;99750;;;;
2022/01/22 21:17:14;;;;;;;20.9;28.2;;;;;;;-1.5;74.8;99750;;;;
2022/01/22 21:28:14;;;;;;;25.8;33.2;;;;;;;-1.4;75;99760;;;;
2022/01/22 21:38:28;;;;;;;25.8;33.2;;;;;;;-1.5;74.9;99750;;;;
2022/01/22 21:48:14;;;;;;;25.8;33.2;;;;;;;-1.5;74.8;99740;;;;
2022/01/22 21:58:15;;;;;;;26.2;39.8;;;;;;;-1.6;74.6;99750;;;;
2022/01/22 22:09:14;;;;;;;26.2;39.8;;;;;;;-1.7;74.8;99750;;;;
2022/01/22 22:19:14;;;;;;;24.7;35.6;;;;;;;-1.7;74.7;99740;;;;
2022/01/22 22:29:14;;;;;;;24.7;35.6;;;;;;;-1.7;74.3;99750;;;;
2022/01/22 22:39:14;;;;;;;24.7;35.6;;;;;;;-1.8;74.3;99750;;;;
2022/01/22 22:49:14;;;;;;;22.5;30.2;;;;;;;-1.8;74.1;99740;;;;
2022/01/22 23:00:23;;;;;;;22.5;30.2;;;;;;;-1.8;74.2;99750;;;;
2022/01/22 23:11:16;;;;;;;22.5;30.2;;;;;;;-1.9;74.4;99750;;;;
2022/01/22 23:22:18;;;;;;;22.6;30.8;;;;;;;-1.9;74.5;99740;;;;
2022/01/22 23:32:18;;;;;;;22.6;30.8;;;;;;;-2;74.5;99740;;;;
2022/01/22 23:54:16;;;;;;;20.1;28.5;;;;;;;-2;74.7;99750;;;;
